createdAt,value
2018-05-08T00:02:02.449Z,7.25
2018-05-08T00:04:30.060Z,8.07
2018-05-08T00:06:57.677Z,7.53
2018-05-08T00:09:25.347Z,7.70
2018-05-08T00:11:52.984Z,8.40
2018-05-08T00:14:20.662Z,7.90
2018-05-08T00:16:48.271Z,8.80
2018-05-08T00:19:15.940Z,7.80
2018-05-08T00:21:43.594Z,7.57
2018-05-08T00:24:11.208Z,7.17
2018-05-08T00:26:38.859Z,6.57
2018-05-08T00:29:06.508Z,7.13
2018-05-08T00:31:34.173Z,7.80
2018-05-08T00:34:01.808Z,6.77
2018-05-08T00:36:29.463Z,7.60
2018-05-08T00:38:57.124Z,8.00
2018-05-08T00:41:24.732Z,6.90
2018-05-08T00:43:52.375Z,8.30
2018-05-08T00:46:20.136Z,8.27
2018-05-08T00:48:47.779Z,7.82
2018-05-08T00:51:15.450Z,9.73
2018-05-08T00:53:43.087Z,7.07
2018-05-08T00:56:10.751Z,8.37
2018-05-08T00:58:38.355Z,7.30
2018-05-08T01:01:06.003Z,7.20
2018-05-08T01:03:33.660Z,7.80
2018-05-08T01:06:01.278Z,7.77
2018-05-08T01:08:28.955Z,7.73
2018-05-08T01:10:56.753Z,7.20
2018-05-08T01:13:24.419Z,6.70
2018-05-08T01:15:52.036Z,6.47
2018-05-08T01:18:19.643Z,7.90
2018-05-08T01:20:47.304Z,7.30
2018-05-08T01:23:14.915Z,6.70
2018-05-08T01:25:42.556Z,6.65
2018-05-08T01:28:10.984Z,8.88
2018-05-08T01:30:38.600Z,10.03
2018-05-08T01:33:06.263Z,6.33
2018-05-08T01:35:33.906Z,7.53
2018-05-08T01:38:01.748Z,6.90
2018-05-08T01:40:29.407Z,6.20
2018-05-08T01:42:57.827Z,6.80
2018-05-08T01:45:25.489Z,9.45
2018-05-08T01:47:53.103Z,7.10
2018-05-08T01:50:20.771Z,6.40
2018-05-08T01:52:49.143Z,7.30
2018-05-08T01:55:17.546Z,6.77
2018-05-08T01:57:45.166Z,6.85
2018-05-08T02:00:12.836Z,7.53
2018-05-08T02:02:40.496Z,7.20
2018-05-08T02:05:08.135Z,6.47
2018-05-08T02:07:35.757Z,6.93
2018-05-08T02:10:03.425Z,6.60
2018-05-08T02:12:31.079Z,6.50
2018-05-08T02:14:58.687Z,7.18
2018-05-08T02:17:26.356Z,5.82
2018-05-08T02:19:53.970Z,6.13
2018-05-08T02:22:21.629Z,6.82
2018-05-08T02:24:49.239Z,7.07
2018-05-08T02:27:16.908Z,6.53
2018-05-08T02:29:45.286Z,6.47
2018-05-08T02:32:12.905Z,6.78
2018-05-08T02:34:40.555Z,6.83
2018-05-08T02:37:08.230Z,7.20
2018-05-08T02:39:35.876Z,9.10
2018-05-08T02:42:03.507Z,7.25
2018-05-08T02:44:31.176Z,6.60
2018-05-08T02:46:58.835Z,11.23
2018-05-08T02:49:26.522Z,8.07
2018-05-08T02:51:54.171Z,7.10
2018-05-08T02:54:22.190Z,9.23
2018-05-08T02:56:49.801Z,7.13
2018-05-08T02:59:17.420Z,8.30
2018-05-08T03:01:45.831Z,6.37
2018-05-08T03:04:13.471Z,7.15
2018-05-08T03:06:41.092Z,7.13
2018-05-08T03:09:08.751Z,6.60
2018-05-08T03:11:36.364Z,16.20
2018-05-08T03:14:04.014Z,7.40
2018-05-08T03:16:32.383Z,7.47
2018-05-08T03:19:00.792Z,7.10
2018-05-08T03:21:28.436Z,7.43
2018-05-08T03:23:56.080Z,8.27
2018-05-08T03:26:23.687Z,7.62
2018-05-08T03:28:51.332Z,7.37
2018-05-08T03:31:18.947Z,7.43
2018-05-08T03:33:46.604Z,8.57
2018-05-08T03:36:14.223Z,7.70
2018-05-08T03:38:41.891Z,7.60
2018-05-08T03:41:09.533Z,7.65
2018-05-08T03:43:37.153Z,7.63
2018-05-08T03:46:05.570Z,11.40
2018-05-08T03:48:33.195Z,9.03
2018-05-08T03:51:00.858Z,8.17
2018-05-08T03:53:29.105Z,7.43
2018-05-08T03:55:57.063Z,7.53
2018-05-08T03:58:24.680Z,7.37
2018-05-08T04:01:04.058Z,7.60
2018-05-08T04:03:43.608Z,7.10
2018-05-08T04:06:23.452Z,8.50
2018-05-08T04:08:51.103Z,7.70
2018-05-08T04:11:18.725Z,8.13
2018-05-08T04:13:46.377Z,9.37
2018-05-08T04:16:14.916Z,8.50
2018-05-08T04:18:42.539Z,8.13
2018-05-08T04:21:10.437Z,7.63
2018-05-08T04:23:38.839Z,8.30
2018-05-08T04:26:07.223Z,6.80
2018-05-08T04:28:35.647Z,7.03
2018-05-08T04:31:03.498Z,7.20
2018-05-08T04:33:31.143Z,6.57
2018-05-08T04:35:58.753Z,7.40
2018-05-08T04:38:26.423Z,6.70
2018-05-08T04:40:54.071Z,7.17
2018-05-08T04:43:21.693Z,6.00
2018-05-08T04:45:49.335Z,6.00
2018-05-08T04:48:16.988Z,5.70
2018-05-08T04:50:44.635Z,6.67
2018-05-08T04:53:13.012Z,6.27
2018-05-08T04:55:40.664Z,5.65
2018-05-08T04:58:08.276Z,7.73
2018-05-08T05:00:36.375Z,5.20
2018-05-08T05:03:04.000Z,5.62
2018-05-08T05:05:31.611Z,5.13
2018-05-08T05:07:59.280Z,5.03
2018-05-08T05:10:27.527Z,5.33
2018-05-08T05:12:55.190Z,5.30
2018-05-08T05:15:22.848Z,4.90
2018-05-08T05:17:50.500Z,5.03
2018-05-08T05:20:18.117Z,4.60
2018-05-08T05:22:45.771Z,5.10
2018-05-08T05:25:14.147Z,5.27
2018-05-08T05:27:42.553Z,4.90
2018-05-08T05:30:10.164Z,4.95
2018-05-08T05:32:37.819Z,5.03
2018-05-08T05:35:05.471Z,5.23
2018-05-08T05:37:33.435Z,6.47
2018-05-08T05:40:01.640Z,4.93
2018-05-08T05:42:29.567Z,5.70
2018-05-08T05:44:57.217Z,5.00
2018-05-08T05:47:25.440Z,6.47
2018-05-08T05:49:53.852Z,5.10
2018-05-08T05:52:21.463Z,5.17
2018-05-08T05:54:49.119Z,4.73
2018-05-08T05:57:16.756Z,7.33
2018-05-08T05:59:44.404Z,5.37
2018-05-08T06:02:12.033Z,5.00
2018-05-08T06:04:40.363Z,5.93
2018-05-08T06:07:08.001Z,4.80
2018-05-08T06:09:35.628Z,4.77
2018-05-08T06:12:03.369Z,9.03
2018-05-08T06:14:30.932Z,4.53
2018-05-08T06:17:00.046Z,5.00
2018-05-08T06:19:28.067Z,6.85
2018-05-08T06:21:56.535Z,5.33
2018-05-08T06:24:24.179Z,5.13
2018-05-08T06:26:53.636Z,4.63
2018-05-08T06:29:24.119Z,4.63
2018-05-08T06:31:51.891Z,6.17
2018-05-08T06:34:19.552Z,6.30
2018-05-08T06:36:47.168Z,5.73
2018-05-08T06:39:14.821Z,5.03
2018-05-08T06:41:42.663Z,4.70
2018-05-08T06:44:10.373Z,5.10
2018-05-08T06:46:38.113Z,4.60
2018-05-08T06:49:05.679Z,4.60
2018-05-08T06:51:33.664Z,5.30
2018-05-08T06:54:01.353Z,5.20
2018-05-08T06:56:28.966Z,4.27
2018-05-08T06:58:56.611Z,6.80
2018-05-08T07:01:24.992Z,5.10
2018-05-08T07:03:57.257Z,4.60
2018-05-08T07:06:24.900Z,4.83
2018-05-08T07:08:53.283Z,4.60
2018-05-08T07:11:20.925Z,7.43
2018-05-08T07:13:48.591Z,6.50
2018-05-08T07:16:17.966Z,4.60
2018-05-08T07:18:46.184Z,6.20
2018-05-08T07:21:14.564Z,5.10
2018-05-08T07:23:42.967Z,4.27
2018-05-08T07:26:10.580Z,4.50
2018-05-08T07:28:38.235Z,5.10
2018-05-08T07:31:05.875Z,4.77
2018-05-08T07:33:33.540Z,5.23
2018-05-08T07:36:01.159Z,4.90
2018-05-08T07:38:28.850Z,5.13
2018-05-08T07:40:56.507Z,4.27
2018-05-08T07:43:24.123Z,4.80
2018-05-08T07:45:51.759Z,9.20
2018-05-08T07:48:19.376Z,5.90
2018-05-08T07:50:47.035Z,5.43
2018-05-08T07:53:14.653Z,4.83
2018-05-08T07:55:42.295Z,5.40
2018-05-08T07:58:09.935Z,4.00
2018-05-08T08:00:37.830Z,4.17
2018-05-08T08:03:06.208Z,7.30
2018-05-08T08:05:33.826Z,3.70
2018-05-08T08:08:01.520Z,5.00
2018-05-08T08:10:29.204Z,4.30
2018-05-08T08:12:56.855Z,4.80
2018-05-08T08:15:25.529Z,6.47
2018-05-08T08:17:53.165Z,4.57
2018-05-08T08:20:20.828Z,4.65
2018-05-08T08:22:48.479Z,4.43
2018-05-08T08:25:16.347Z,4.10
2018-05-08T08:27:44.004Z,3.77
2018-05-08T08:30:11.647Z,3.47
2018-05-08T08:32:39.296Z,4.67
2018-05-08T08:35:06.951Z,7.37
2018-05-08T08:37:35.339Z,4.30
2018-05-08T08:40:02.955Z,3.80
2018-05-08T08:42:30.612Z,6.40
2018-05-08T08:44:58.255Z,3.93
2018-05-08T08:47:25.872Z,6.33
2018-05-08T08:49:53.535Z,5.13
2018-05-08T08:52:21.237Z,4.90
2018-05-08T08:54:49.103Z,3.97
2018-05-08T08:57:16.763Z,4.10
2018-05-08T08:59:44.377Z,4.80
2018-05-08T09:02:12.711Z,3.80
2018-05-08T09:04:41.079Z,3.37
2018-05-08T09:07:08.692Z,7.10
2018-05-08T09:09:36.356Z,3.80
2018-05-08T09:12:04.763Z,3.00
2018-05-08T09:14:32.477Z,3.27
2018-05-08T09:19:50.578Z,3.80
2018-05-08T09:22:18.188Z,5.47
2018-05-08T09:24:47.203Z,4.23
2018-05-08T09:27:14.857Z,3.23
2018-05-08T09:29:42.475Z,3.40
2018-05-08T09:32:10.124Z,2.90
2018-05-08T09:34:37.752Z,4.77
2018-05-08T09:37:05.389Z,5.63
2018-05-08T09:39:33.019Z,4.97
2018-05-08T09:42:00.687Z,5.37
2018-05-08T09:44:29.076Z,3.07
2018-05-08T09:46:57.047Z,5.50
2018-05-08T09:49:25.432Z,3.55
2018-05-08T09:51:53.084Z,3.10
2018-05-08T09:54:20.731Z,4.37
2018-05-08T09:56:48.347Z,3.80
2018-05-08T09:59:16.929Z,5.40
2018-05-08T10:01:44.590Z,4.20
2018-05-08T10:04:12.218Z,4.17
2018-05-08T10:06:39.954Z,3.70
2018-05-08T10:09:07.544Z,3.57
2018-05-08T10:11:35.162Z,3.10
2018-05-08T10:14:02.807Z,3.10
2018-05-08T10:16:30.434Z,3.27
2018-05-08T10:18:58.090Z,3.20
2018-05-08T10:21:25.712Z,6.93
2018-05-08T10:23:54.131Z,4.27
2018-05-08T10:26:21.757Z,3.60
2018-05-08T10:28:49.419Z,4.13
2018-05-08T10:31:17.029Z,17.33
2018-05-08T10:33:44.662Z,4.63
2018-05-08T10:36:12.323Z,2.67
2018-05-08T10:38:39.942Z,4.10
2018-05-08T10:41:07.595Z,3.63
2018-05-08T10:43:35.249Z,3.30
2018-05-08T10:46:02.906Z,3.17
2018-05-08T10:48:30.557Z,4.03
2018-05-08T10:50:58.209Z,3.90
2018-05-08T10:53:26.063Z,2.73
2018-05-08T10:55:53.671Z,2.60
2018-05-08T10:58:21.294Z,2.87
2018-05-08T11:00:48.944Z,3.10
2018-05-08T11:03:16.563Z,3.03
2018-05-08T11:05:44.223Z,2.93
2018-05-08T11:08:12.637Z,3.28
2018-05-08T11:10:40.247Z,3.77
2018-05-08T11:13:07.924Z,2.73
2018-05-08T11:15:35.559Z,4.07
2018-05-08T11:18:03.189Z,3.47
2018-05-08T11:20:30.861Z,2.73
2018-05-08T11:22:58.490Z,3.33
2018-05-08T11:25:26.143Z,3.50
2018-05-08T11:27:53.839Z,5.50
2018-05-08T11:30:21.453Z,3.00
2018-05-08T11:32:49.142Z,3.10
2018-05-08T11:35:16.758Z,3.40
2018-05-08T11:37:45.173Z,3.60
2018-05-08T11:40:12.797Z,10.20
2018-05-08T11:42:40.463Z,8.83
2018-05-08T11:45:08.121Z,2.57
2018-05-08T11:47:36.507Z,3.03
2018-05-08T11:50:04.924Z,3.27
2018-05-08T11:52:32.616Z,3.20
2018-05-08T11:55:00.232Z,3.00
2018-05-08T11:57:27.887Z,2.93
2018-05-08T11:59:55.541Z,3.03
2018-05-08T12:02:23.195Z,3.70
2018-05-08T12:04:50.809Z,2.73
2018-05-08T12:07:18.495Z,2.70
2018-05-08T12:09:46.124Z,2.57
2018-05-08T12:12:13.784Z,3.20
2018-05-08T12:14:41.624Z,3.27
2018-05-08T12:17:10.001Z,3.13
2018-05-08T12:19:37.696Z,5.20
2018-05-08T12:22:05.316Z,2.50
2018-05-08T12:24:32.970Z,2.90
2018-05-08T12:27:00.589Z,3.70
2018-05-08T12:29:28.238Z,3.57
2018-05-08T12:31:55.862Z,2.57
2018-05-08T12:34:23.512Z,5.60
2018-05-08T12:36:51.159Z,3.93
2018-05-08T12:39:21.108Z,2.60
2018-05-08T12:41:48.788Z,3.80
2018-05-08T12:44:16.445Z,6.40
2018-05-08T12:46:44.142Z,3.03
2018-05-08T12:49:11.776Z,2.87
2018-05-08T12:51:39.452Z,3.20
2018-05-08T12:54:07.109Z,2.40
2018-05-08T12:56:36.304Z,3.07
2018-05-08T12:59:03.925Z,3.43
2018-05-08T13:01:31.608Z,4.43
2018-05-08T13:03:59.250Z,3.33
2018-05-08T13:06:26.861Z,3.37
2018-05-08T13:08:55.296Z,5.00
2018-05-08T13:11:22.947Z,2.23
2018-05-08T13:13:50.597Z,3.53
2018-05-08T13:16:18.203Z,3.53
2018-05-08T13:18:46.626Z,3.25
2018-05-08T13:21:14.233Z,2.70
2018-05-08T13:23:41.892Z,2.50
2018-05-08T13:26:09.503Z,3.63
2018-05-08T13:28:37.137Z,4.53
2018-05-08T13:31:04.867Z,2.43
2018-05-08T13:33:32.446Z,2.40
2018-05-08T13:36:00.916Z,2.80
2018-05-08T13:38:28.528Z,2.60
2018-05-08T13:40:56.192Z,3.37
2018-05-08T13:43:23.820Z,2.17
2018-05-08T13:45:51.608Z,2.30
2018-05-08T13:48:19.264Z,5.07
2018-05-08T13:50:46.879Z,2.40
2018-05-08T13:53:14.608Z,3.37
2018-05-08T13:55:42.219Z,3.17
2018-05-08T13:58:10.627Z,2.53
2018-05-08T14:00:38.602Z,2.23
2018-05-08T14:03:06.207Z,5.03
2018-05-08T14:05:33.837Z,3.23
2018-05-08T14:08:02.263Z,3.70
2018-05-08T14:10:29.879Z,2.53
2018-05-08T14:12:57.645Z,3.73
2018-05-08T14:15:25.262Z,4.57
2018-05-08T14:17:52.876Z,3.80
2018-05-08T14:20:20.539Z,2.47
2018-05-08T14:22:48.178Z,2.37
2018-05-08T14:25:15.844Z,5.27
2018-05-08T14:27:43.496Z,2.60
2018-05-08T14:30:11.159Z,3.47
2018-05-08T14:32:38.843Z,5.40
2018-05-08T14:35:07.940Z,3.30
2018-05-08T14:37:35.596Z,3.80
2018-05-08T14:40:03.348Z,2.07
2018-05-08T14:42:31.796Z,4.70
2018-05-08T14:44:59.419Z,4.03
2018-05-08T14:47:27.071Z,2.83
2018-05-08T14:49:54.690Z,2.23
2018-05-08T14:52:22.300Z,2.40
2018-05-08T14:54:50.012Z,4.20
2018-05-08T14:57:17.672Z,8.23
2018-05-08T14:59:45.324Z,3.03
2018-05-08T15:02:13.211Z,2.30
2018-05-08T15:04:40.854Z,2.60
2018-05-08T15:07:08.499Z,4.40
2018-05-08T15:09:36.113Z,2.50
2018-05-08T15:12:03.768Z,3.20
2018-05-08T15:14:31.421Z,2.10
2018-05-08T15:16:59.036Z,2.47
2018-05-08T15:19:26.696Z,2.47
2018-05-08T15:21:54.436Z,2.30
2018-05-08T15:24:22.020Z,3.00
2018-05-08T15:26:50.259Z,3.17
2018-05-08T15:29:18.671Z,4.10
2018-05-08T15:31:46.276Z,2.73
2018-05-08T15:34:13.915Z,2.50
2018-05-08T15:36:41.591Z,2.80
2018-05-08T15:39:09.248Z,2.87
2018-05-08T15:41:36.897Z,2.70
2018-05-08T15:44:04.513Z,2.30
2018-05-08T15:46:32.229Z,2.80
2018-05-08T15:48:59.863Z,2.47
2018-05-08T15:51:27.476Z,2.30
2018-05-08T15:53:55.135Z,3.17
2018-05-08T15:56:22.757Z,3.07
2018-05-08T15:58:50.364Z,2.60
2018-05-08T16:01:18.016Z,2.37
2018-05-08T16:03:46.431Z,2.30
2018-05-08T16:06:14.132Z,3.77
2018-05-08T16:08:41.785Z,2.43
2018-05-08T16:11:09.432Z,3.30
2018-05-08T16:13:38.016Z,2.47
2018-05-08T16:16:05.672Z,3.13
2018-05-08T16:18:33.288Z,4.50
2018-05-08T16:21:01.763Z,2.30
2018-05-08T16:23:29.367Z,2.60
2018-05-08T16:25:56.988Z,3.50
2018-05-08T16:28:24.644Z,2.67
2018-05-08T16:30:53.024Z,2.80
2018-05-08T16:33:21.439Z,3.20
2018-05-08T16:35:49.096Z,2.50
2018-05-08T16:38:17.516Z,2.22
2018-05-08T16:40:45.176Z,3.40
2018-05-08T16:43:12.853Z,1.80
2018-05-08T16:45:40.500Z,3.63
2018-05-08T16:48:09.583Z,3.50
2018-05-08T16:50:37.202Z,4.53
2018-05-08T16:53:04.866Z,2.50
2018-05-08T16:55:32.561Z,3.73
2018-05-08T16:58:00.186Z,3.13
2018-05-08T17:00:27.846Z,2.30
2018-05-08T17:02:55.524Z,3.20
2018-05-08T17:05:23.183Z,2.27
2018-05-08T17:07:50.831Z,2.37
2018-05-08T17:10:18.896Z,5.40
2018-05-08T17:12:47.443Z,2.50
2018-05-08T17:15:15.875Z,3.43
2018-05-08T17:17:44.131Z,2.67
2018-05-08T17:20:11.795Z,2.50
2018-05-08T17:22:39.484Z,2.67
2018-05-08T17:25:07.746Z,2.60
2018-05-08T17:27:35.363Z,2.67
2018-05-08T17:30:03.781Z,3.40
2018-05-08T17:32:31.387Z,2.70
2018-05-08T17:35:00.027Z,4.03
2018-05-08T17:37:27.818Z,2.70
2018-05-08T17:39:55.436Z,2.67
2018-05-08T17:42:23.087Z,2.60
2018-05-08T17:44:50.708Z,4.33
2018-05-08T17:47:18.624Z,3.73
2018-05-08T17:49:46.271Z,6.20
2018-05-08T17:52:14.847Z,3.20
2018-05-08T17:54:42.507Z,4.13
2018-05-08T17:57:10.163Z,2.80
2018-05-08T17:59:37.812Z,2.67
2018-05-08T18:02:05.447Z,2.43
2018-05-08T18:04:33.095Z,3.83
2018-05-08T18:07:00.757Z,6.73
2018-05-08T18:09:28.437Z,10.40
2018-05-08T18:11:56.053Z,7.93
2018-05-08T18:14:23.943Z,2.80
2018-05-08T18:16:52.213Z,4.47
2018-05-08T18:19:19.867Z,2.93
2018-05-08T18:21:47.539Z,3.13
2018-05-08T18:24:15.183Z,3.57
2018-05-08T18:26:42.840Z,2.60
2018-05-08T18:29:11.178Z,2.87
2018-05-08T18:31:39.606Z,2.63
2018-05-08T18:34:07.819Z,5.40
2018-05-08T18:36:35.471Z,3.07
2018-05-08T18:39:03.092Z,4.23
2018-05-08T18:41:30.747Z,2.93
2018-05-08T18:43:58.687Z,2.77
2018-05-08T18:46:26.237Z,2.43
2018-05-08T18:48:54.155Z,2.70
2018-05-08T18:51:21.786Z,3.40
2018-05-08T18:53:49.508Z,2.40
2018-05-08T18:56:17.440Z,3.20
2018-05-08T18:58:45.059Z,3.10
2018-05-08T19:01:12.728Z,9.13
2018-05-08T19:03:40.433Z,3.50
2018-05-08T19:06:08.252Z,2.50
2018-05-08T19:08:35.864Z,2.65
2018-05-08T19:11:09.126Z,2.70
2018-05-08T19:13:36.745Z,4.40
2018-05-08T19:16:05.870Z,2.30
2018-05-08T19:18:39.359Z,3.13
2018-05-08T19:21:06.983Z,2.60
2018-05-08T19:23:34.906Z,3.57
2018-05-08T19:26:02.564Z,7.23
2018-05-08T19:31:28.856Z,3.65
2018-05-08T19:33:57.367Z,5.47
2018-05-08T19:36:30.883Z,3.40
2018-05-08T19:38:58.517Z,3.30
2018-05-08T19:41:26.159Z,4.60
2018-05-08T19:43:53.871Z,3.20
2018-05-08T19:46:21.519Z,3.10
2018-05-08T19:48:49.396Z,4.93
2018-05-08T19:51:16.999Z,5.00
2018-05-08T19:53:44.657Z,3.35
2018-05-08T19:56:12.279Z,2.73
2018-05-08T19:58:39.930Z,3.27
2018-05-08T20:01:07.545Z,3.67
2018-05-08T20:03:35.956Z,3.33
2018-05-08T20:06:03.572Z,5.03
2018-05-08T20:08:31.992Z,4.77
2018-05-08T20:11:00.049Z,3.20
2018-05-08T20:13:27.659Z,3.80
2018-05-08T20:15:55.343Z,7.23
2018-05-08T20:18:23.719Z,2.93
2018-05-08T20:20:52.176Z,8.20
2018-05-08T20:23:19.785Z,3.60
2018-05-08T20:25:47.450Z,3.50
2018-05-08T20:28:15.068Z,3.20
2018-05-08T20:30:42.819Z,4.03
2018-05-08T20:33:10.431Z,3.70
2018-05-08T20:35:43.603Z,2.60
2018-05-08T20:38:11.640Z,3.90
2018-05-08T20:40:39.641Z,13.73
2018-05-08T20:43:07.304Z,3.60
2018-05-08T20:45:35.009Z,3.40
2018-05-08T20:48:02.617Z,3.57
2018-05-08T20:50:30.876Z,3.17
2018-05-08T20:52:58.549Z,3.30
2018-05-08T20:55:27.048Z,3.60
2018-05-08T20:57:54.645Z,4.20
2018-05-08T21:00:22.297Z,3.37
2018-05-08T21:02:49.908Z,3.77
2018-05-08T21:05:18.320Z,3.17
2018-05-08T21:07:46.511Z,2.80
2018-05-08T21:10:14.159Z,3.12
2018-05-08T21:12:41.815Z,3.60
2018-05-08T21:15:09.431Z,2.92
2018-05-08T21:17:37.900Z,4.17
2018-05-08T21:20:05.504Z,8.47
2018-05-08T21:22:33.385Z,2.67
2018-05-08T21:25:01.036Z,3.03
2018-05-08T21:27:34.351Z,3.83
2018-05-08T21:30:07.619Z,3.20
2018-05-08T21:32:35.265Z,4.00
2018-05-08T21:35:02.918Z,3.40
2018-05-08T21:37:31.294Z,3.22
2018-05-08T21:39:59.719Z,3.40
2018-05-08T21:42:27.327Z,3.87
2018-05-08T21:44:55.755Z,2.40
2018-05-08T21:47:23.583Z,2.60
2018-05-08T21:49:51.237Z,3.20
2018-05-08T21:52:19.658Z,3.10
2018-05-08T21:54:47.285Z,3.70
2018-05-08T21:57:14.931Z,5.90
2018-05-08T21:59:42.544Z,3.17
2018-05-08T22:02:10.190Z,2.67
2018-05-08T22:04:37.802Z,2.40
2018-05-08T22:07:06.213Z,3.30
2018-05-08T22:09:33.876Z,4.50
2018-05-08T22:12:01.512Z,3.22
2018-05-08T22:14:29.131Z,5.17
2018-05-08T22:16:56.801Z,3.37
2018-05-08T22:19:24.459Z,5.10
2018-05-08T22:21:52.071Z,3.92
2018-05-08T22:24:19.688Z,3.53
2018-05-08T22:26:47.531Z,4.03
2018-05-08T22:29:15.177Z,3.92
2018-05-08T22:31:42.826Z,4.60
2018-05-08T22:34:10.463Z,3.58
2018-05-08T22:36:38.107Z,2.87
2018-05-08T22:39:05.751Z,3.97
2018-05-08T22:41:33.364Z,3.50
2018-05-08T22:44:01.019Z,4.47
2018-05-08T22:46:28.651Z,4.53
2018-05-08T22:48:56.300Z,4.10
2018-05-08T22:51:24.723Z,4.70
2018-05-08T22:53:52.380Z,6.23
2018-05-08T22:56:20.159Z,5.35
2018-05-08T22:58:47.836Z,3.73
2018-05-08T23:01:15.495Z,3.93
2018-05-08T23:03:43.196Z,3.93
2018-05-08T23:06:10.807Z,3.80
2018-05-08T23:08:38.460Z,4.50
2018-05-08T23:11:06.073Z,3.37
2018-05-08T23:13:34.514Z,4.93
2018-05-08T23:16:02.370Z,3.75
2018-05-08T23:18:30.023Z,4.13
2018-05-08T23:20:57.667Z,3.60
2018-05-08T23:23:25.291Z,4.60
2018-05-08T23:25:52.932Z,4.07
2018-05-08T23:28:20.547Z,4.07
2018-05-08T23:30:48.200Z,6.37
2018-05-08T23:33:15.807Z,3.40
2018-05-08T23:35:43.460Z,3.80
2018-05-08T23:38:11.298Z,3.78
2018-05-08T23:40:38.949Z,5.73
2018-05-08T23:43:06.606Z,4.35
2018-05-08T23:45:34.249Z,4.30
2018-05-08T23:48:01.899Z,3.90
2018-05-08T23:50:30.280Z,4.40
2018-05-08T23:52:59.012Z,4.27
2018-05-08T23:55:26.843Z,3.93
2018-05-08T23:57:54.538Z,3.90
